Albert, Oklahoma
Current Conditions -  °F | °C
As of 6:35 PM on Friday 31 Oct 2014 (Local Time) from KOJA Reporting Station
Clear Clear  
Wind Chill: 45°   Ceiling: Unl
Heat Index: 48°   Visibility: 10mi
Dew Point: 27°   Wind: 8mph
Humidity: 43%   Direction: 60°ENE
Pressure: 30.39"   Gusts: NA
Location:  35.23°N, 98.41°W
Report Text: KOJA 312335Z AUTO 06007KT 10SM CLR 09/M03 A3039 RMK AO2
Loading
Personal Weather Stations






























Interactive Weather Map
Tropical Storm Tracking
New forecast layout! Learn more

10-Day Weather Forecast

Advertisements
Track Severe Weather on mobile